D/T METAR WX W/DIR W/SPE G/SPE TEMP DEWP
16/01/19 03:00 EICK 160300Z 33013KT 7000 -RA FEW002 BKN004 BKN009 05/05 Q1006 TEMPO 3000 BKN003 -RA NNW (330°) 15.0mph 5°C 5°C
16/01/19 02:30 EICK 160230Z 30016KT 9999 -RA FEW003 BKN005 BKN010 06/06 Q1006 TEMPO 3000 BKN003 -RA WNW (300°) 18.4mph 6°C 6°C
16/01/19 02:00 EICK 160200Z 22011KT 9999 SCT009 BKN028 08/08 Q1005 TEMPO BKN005 SW (220°) 12.7mph 8°C 8°C
16/01/19 01:30 EICK 160130Z 22013KT 9999 SCT008 BKN030 08/07 Q1006 TEMPO BKN005 SW (220°) 15.0mph 8°C 7°C
16/01/19 01:00 EICK 160100Z 22011KT 9999 SCT006 SCT013 BKN030 08/07 Q1006 TEMPO BKN005 SW (220°) 12.7mph 8°C 7°C
16/01/19 00:30 EICK 160030Z 23009KT 9999 SCT007 SCT014 BKN030 08/07 Q1007 TEMPO BKN005 SW (230°) 10.4mph 8°C 7°C
16/01/19 00:00 EICK 160000Z 23011KT 9999 SCT004 BKN020 07/07 Q1007 TEMPO BKN005 SW (230°) 12.7mph 7°C 7°C
15/01/19 23:30 EICK 152330Z 23010KT 9999 FEW002 BKN006 BKN018 08/08 Q1007 TEMPO 3000 SW (230°) 11.5mph 8°C 8°C
15/01/19 23:00 EICK 152300Z 23014KT 9999 FEW002 BKN004 BKN018 08/08 Q1008 TEMPO 3000 SW (230°) 16.1mph 8°C 8°C
15/01/19 22:30 EICK 152230Z 22015KT 9999 -DZ SCT002 BKN005 BKN014 08/08 Q1008 TEMPO 3000 -DZ SW (220°) 17.3mph 8°C 8°C
15/01/19 22:00 EICK 152200Z 22014KT 9999 SCT002 BKN005 BKN014 08/08 Q1009 TEMPO 3000 SW (220°) 16.1mph 8°C 8°C
15/01/19 21:30 EICK 152130Z 22015KT 3000 -RA FEW001 BKN002 BKN006 08/08 Q1009 NOSIG -RA SW (220°) 17.3mph 8°C 8°C
15/01/19 21:00 EICK 152100Z 22014KT 7000 -RADZ FEW002 BKN004 BKN010 08/08 Q1009 TEMPO 4000 -RA -DZ SW (220°) 16.1mph 8°C 8°C
15/01/19 20:30 EICK 152030Z 21013KT 9999 -DZ SCT004 BKN008 BKN013 08/08 Q1010 TEMPO BKN018 -DZ SSW (210°) 15.0mph 8°C 8°C
15/01/19 20:00 EICK 152000Z 21012KT 9999 FEW005 BKN008 BKN016 08/08 Q1010 TEMPO BKN018 SSW (210°) 13.8mph 8°C 8°C
15/01/19 19:30 EICK 151930Z 22014KT 9999 FEW007 BKN009 BKN022 08/07 Q1011 TEMPO BKN018 SW (220°) 16.1mph 8°C 7°C
15/01/19 19:00 EICK 151900Z 22009KT 9999 FEW008 SCT010 BKN032 08/07 Q1011 NOSIG SW (220°) 10.4mph 8°C 7°C
15/01/19 18:30 EICK 151830Z 21009KT 9999 FEW008 BKN035 08/07 Q1011 NOSIG SSW (210°) 10.4mph 8°C 7°C
15/01/19 18:00 EICK 151800Z 21010KT 9999 FEW008 BKN200 08/07 Q1012 NOSIG SSW (210°) 11.5mph 8°C 7°C
15/01/19 17:30 EICK 151730Z 22012KT 9999 FEW006 SCT007 BKN009 08/08 Q1012 TEMPO BKN020 SW (220°) 13.8mph 8°C 8°C
15/01/19 17:00 EICK 151700Z 23011KT 9999 FEW008 SCT012 BKN025 08/07 Q1013 NOSIG SW (230°) 12.7mph 8°C 7°C
15/01/19 16:30 EICK 151630Z 22012KT 9999 FEW004 SCT009 BKN024 08/08 Q1013 NOSIG SW (220°) 13.8mph 8°C 8°C
15/01/19 16:00 EICK 151600Z 23014KT 9999 -DZ FEW004 SCT007 BKN010 09/08 Q1013 TEMPO BKN018 -DZ SW (230°) 16.1mph 9°C 8°C
15/01/19 15:30 EICK 151530Z 22015KT 9999 -DZ SCT006 BKN009 BKN018 09/08 Q1014 TEMPO BKN018 -DZ SW (220°) 17.3mph 9°C 8°C
15/01/19 15:00 EICK 151500Z 22011KT 9999 FEW006 SCT009 BKN024 09/08 Q1014 NOSIG SW (220°) 12.7mph 9°C 8°C
15/01/19 14:30 EICK 151430Z 22010KT 9999 FEW008 SCT013 BKN028 09/08 Q1015 NOSIG SW (220°) 11.5mph 9°C 8°C
15/01/19 14:00 EICK 151400Z 24010KT 9999 FEW010 SCT024 BKN140 09/08 Q1015 NOSIG WSW (240°) 11.5mph 9°C 8°C
15/01/19 13:30 EICK 151330Z 23014KT 9999 FEW007 SCT009 BKN012 09/08 Q1015 TEMPO BKN018 SW (230°) 16.1mph 9°C 8°C
15/01/19 13:00 EICK 151300Z 23013KT 9999 FEW008 SCT012 BKN180 09/08 Q1016 NOSIG SW (230°) 15.0mph 9°C 8°C
15/01/19 12:30 EICK 151230Z 23012KT 9999 FEW007 BKN180 09/08 Q1016 NOSIG SW (230°) 13.8mph 9°C 8°C
15/01/19 12:00 EICK 151200Z 22012KT 9999 -DZ SCT005 BKN007 09/08 Q1017 TEMPO BKN020 -DZ SW (220°) 13.8mph 9°C 8°C
15/01/19 11:30 EICK 151130Z 22010KT 9999 FEW005 SCT020 08/08 Q1018 NOSIG SW (220°) 11.5mph 8°C 8°C
15/01/19 11:00 EICK 151100Z 23009KT 9999 FEW004 SCT006 08/08 Q1018 NOSIG SW (230°) 10.4mph 8°C 8°C
15/01/19 10:30 EICK 151030Z 23011KT 8000 FEW003 SCT005 BKN007 08/08 Q1018 NOSIG SW (230°) 12.7mph 8°C 8°C
15/01/19 10:00 EICK 151000Z 22009KT 1100 R16/1500U R34/1300N BR BKN002 BKN003 07/07 Q1019 TEMPO 0500 BR SW (220°) 10.4mph 7°C 7°C
15/01/19 09:30 EICK 150930Z 23008KT 0900 R16/P2000 R34/1200D FG BKN002 BKN003 07/07 Q1019 TEMPO 0500 FG SW (230°) 9.2mph 7°C 7°C
15/01/19 09:00 EICK 150900Z 23009KT 0700 R16/1400D R34/0750N FG BKN002 BKN003 07/07 Q1019 TEMPO 0500 FG SW (230°) 10.4mph 7°C 7°C
15/01/19 08:30 EICK 150830Z 21008KT 0700 R16/1600D R34/0800D -DZ FG BKN002 BKN003 07/07 Q1019 TEMPO 0500 -DZ FG SSW (210°) 9.2mph 7°C 7°C
15/01/19 08:00 EICK 150800Z 22010KT 1700 BR SCT002 BKN003 07/07 Q1019 TEMPO 0500 BKN002 BR SW (220°) 11.5mph 7°C 7°C
15/01/19 07:30 EICK 150730Z 23006KT 190V270 1200 R16/P2000 R34/P2000 BR FEW001 BKN003 BKN008 07/07 Q1019 TEMPO 0500 BR SW (230°) 6.9mph 7°C 7°C
15/01/19 07:00 EICK 150700Z 21005KT 0900 R16/1500N R34/1300N FG FEW001 BKN002 BKN008 06/06 Q1019 TEMPO 0500 FG SSW (210°) 5.8mph 6°C 6°C
15/01/19 06:30 EICK 150630Z 22006KT 0900 R16/1500U R34/1100N -DZ FG FEW002 BKN003 BKN016 06/06 Q1020 TEMPO 0500 -DZ FG SW (220°) 6.9mph 6°C 6°C
15/01/19 06:00 EICK 150600Z 22006KT 0900 R16/P2000 R34/1100N FG FEW001 BKN002 BKN008 06/06 Q1020 TEMPO 0500 FG SW (220°) 6.9mph 6°C 6°C
15/01/19 05:30 EICK 150530Z 24007KT 0900 R16/1900D R34/1300D FG FEW001 BKN002 BKN008 06/06 Q1020 TEMPO 0500 FG WSW (240°) 8.1mph 6°C 6°C
15/01/19 05:00 EICK 150500Z 23007KT 0900 R16/1800D R34/1200D FG FEW001 BKN002 BKN008 07/07 Q1020 TEMPO 0500 FG SW (230°) 8.1mph 7°C 7°C
15/01/19 04:30 EICK 150430Z 23008KT 1200 R16/P2000 R34/1700D BR FEW001 BKN002 BKN008 07/07 Q1021 TEMPO 0500 BR SW (230°) 9.2mph 7°C 7°C
15/01/19 04:00 EICK 150400Z 22008KT 0800 R16/110U R34/0900U FG FEW001 BKN002 BKN007 07/07 Q1021 TEMPO 0500 FG SW (220°) 9.2mph 7°C 7°C
15/01/19 03:30 EICK 150330Z 22006KT 0700 R16/0900U R34/0750N FG FEW001 BKN002 BKN006 07/07 Q1021 TEMPO 0500 FG SW (220°) 6.9mph 7°C 7°C
15/01/19 03:00 EICK 150300Z 23007KT 0700 R16/0700N R34/0700N FG FEW001 BKN002 BKN006 07/07 Q1021 TEMPO 0500 FG SW (230°) 8.1mph 7°C 7°C
15/01/19 02:30 EICK 150230Z 23007KT 0700 R16/1400D R34/0700D FG FEW001 BKN002 BKN006 07/07 Q1022 TEMPO 0500 FG SW (230°) 8.1mph 7°C 7°C
15/01/19 02:00 EICK 150200Z 22007KT 0800 R16/1200D R34/1100D FG FEW001 BKN002 BKN006 07/06 Q1022 TEMPO 0500 FG SW (220°) 8.1mph 7°C 6°C
15/01/19 01:30 EICK 150130Z 24007KT 9999 SCT002 BKN016 06/06 Q1023 TEMPO 3000 BKN002 WSW (240°) 8.1mph 6°C 6°C
15/01/19 01:00 EICK 150100Z 23008KT 9999 FEW002 BKN020 05/05 Q1023 TEMPO 3000 BKN002 SW (230°) 9.2mph 5°C 5°C
15/01/19 00:30 EICK 150030Z 21004KT 9999 FEW001 SCT018 05/05 Q1023 TEMPO 3000 BKN002 SSW (210°) 4.6mph 5°C 5°C
15/01/19 00:00 EICK 150000Z 21005KT 9999 FEW001 SCT002 BKN020 06/06 Q1023 TEMPO 3000 BKN002 SSW (210°) 5.8mph 6°C 6°C
14/01/19 23:30 EICK 142330Z 22005KT 2000 BR SCT001 BKN002 BKN020 07/07 Q1023 TEMPO 0500 BKN001 BR SW (220°) 5.8mph 7°C 7°C
14/01/19 23:00 EICK 142300Z 20003KT 170V250 9999 FEW001 SCT002 BKN020 07/07 Q1023 TEMPO 2000 SSW (200°) 3.5mph 7°C 7°C
14/01/19 22:30 EICK 142230Z 23005KT 9999 FEW001 BKN002 BKN020 08/08 Q1023 TEMPO 2000 SW (230°) 5.8mph 8°C 8°C
14/01/19 22:00 EICK 142200Z 23005KT 1800 BR FEW001 BKN002 BKN007 08/08 Q1024 NOSIG BR SW (230°) 5.8mph 8°C 8°C
14/01/19 21:30 EICK 142130Z 23005KT 1600 BR FEW001 BKN002 BKN007 08/07 Q1024 NOSIG BR SW (230°) 5.8mph 8°C 7°C
14/01/19 21:00 EICK 142100Z 23007KT 7000 FEW001 BKN002 BKN009 08/07 Q1024 TEMPO 3000 SW (230°) 8.1mph 8°C 7°C
14/01/19 20:30 EICK 142030Z 23008KT 9999 SCT003 BKN016 07/07 Q1024 NOSIG SW (230°) 9.2mph 7°C 7°C
14/01/19 20:00 EICK 142000Z 23008KT 9999 FEW010 BKN020 07/06 Q1024 NOSIG SW (230°) 9.2mph 7°C 6°C
14/01/19 19:30 EICK 141930Z 23007KT 9999 FEW010 BKN020 07/06 Q1024 NOSIG SW (230°) 8.1mph 7°C 6°C
14/01/19 19:00 EICK 141900Z 22006KT 9999 BKN023 07/06 Q1024 NOSIG SW (220°) 6.9mph 7°C 6°C
14/01/19 18:30 EICK 141830Z 21005KT 9999 FEW019 BKN023 07/06 Q1024 NOSIG SSW (210°) 5.8mph 7°C 6°C
14/01/19 18:00 EICK 141800Z 23008KT 9999 FEW018 BKN022 07/05 Q1024 NOSIG SW (230°) 9.2mph 7°C 5°C
14/01/19 17:30 EICK 141730Z 23005KT 9999 FEW019 BKN023 07/05 Q1024 NOSIG SW (230°) 5.8mph 7°C 5°C
14/01/19 17:00 EICK 141700Z 20004KT 9999 FEW024 BKN026 08/05 Q1025 NOSIG SSW (200°) 4.6mph 8°C 5°C
14/01/19 16:30 EICK 141630Z 23004KT 9999 FEW024 BKN027 08/05 Q1025 NOSIG SW (230°) 4.6mph 8°C 5°C
14/01/19 16:00 EICK 141600Z 24005KT 210V270 9999 FEW024 BKN030 08/05 Q1025 NOSIG WSW (240°) 5.8mph 8°C 5°C
14/01/19 15:30 EICK 141530Z 26007KT 210V280 9999 FEW024 BKN031 08/04 Q1025 NOSIG W (260°) 8.1mph 8°C 4°C
14/01/19 15:00 EICK 141500Z 27005KT 9999 BKN024 08/05 Q1025 NOSIG W (270°) 5.8mph 8°C 5°C
14/01/19 14:30 EICK 141430Z 29006KT 9999 BKN024 09/04 Q1025 NOSIG WNW (290°) 6.9mph 9°C 4°C
14/01/19 14:00 EICK 141400Z 30005KT 9999 BKN024 09/04 Q1025 NOSIG WNW (300°) 5.8mph 9°C 4°C
14/01/19 13:30 EICK 141330Z 29009KT 9999 BKN024 09/04 Q1026 NOSIG WNW (290°) 10.4mph 9°C 4°C
14/01/19 13:00 EICK 141300Z 26008KT 9999 BKN024 08/04 Q1026 NOSIG W (260°) 9.2mph 8°C 4°C
14/01/19 12:30 EICK 141230Z 26008KT 9999 BKN024 08/04 Q1026 NOSIG W (260°) 9.2mph 8°C 4°C
14/01/19 12:00 EICK 141200Z 25007KT 9999 BKN024 08/04 Q1026 NOSIG WSW (250°) 8.1mph 8°C 4°C
14/01/19 11:30 EICK 141130Z 27009KT 9999 BKN024 08/04 Q1026 NOSIG W (270°) 10.4mph 8°C 4°C
14/01/19 11:00 EICK 141100Z 25006KT 9999 FEW030 SCT250 08/04 Q1026 NOSIG WSW (250°) 6.9mph 8°C 4°C
14/01/19 10:30 EICK 141030Z 26006KT 9999 FEW028 SCT250 07/04 Q1026 NOSIG W (260°) 6.9mph 7°C 4°C
14/01/19 10:00 EICK 141000Z 25005KT 210V280 9999 FEW029 SCT250 07/04 Q1026 NOSIG WSW (250°) 5.8mph 7°C 4°C
14/01/19 09:30 EICK 140930Z 25004KT 220V280 9999 FEW028 SCT250 06/03 Q1026 NOSIG WSW (250°) 4.6mph 6°C 3°C
14/01/19 09:00 EICK 140900Z 23004KT 9999 FEW025 SCT250 05/03 Q1026 NOSIG SW (230°) 4.6mph 5°C 3°C
14/01/19 08:30 EICK 140830Z VRB03KT 9999 FEW025 SCT028 BKN250 07/03 Q1025 NOSIG N (0°) 3.5mph 7°C 3°C
14/01/19 08:00 EICK 140800Z 28007KT 9999 FEW025 SCT030 06/03 Q1025 NOSIG W (280°) 8.1mph 6°C 3°C
14/01/19 07:30 EICK 140730Z VRB03KT 9999 FEW024 SCT030 07/03 Q1025 NOSIG N (0°) 3.5mph 7°C 3°C
14/01/19 07:00 EICK 140700Z 29006KT 9999 FEW018 BKN024 07/03 Q1025 NOSIG WNW (290°) 6.9mph 7°C 3°C
14/01/19 06:30 EICK 140630Z 30008KT 9999 FEW018 BKN027 07/03 Q1025 NOSIG WNW (300°) 9.2mph 7°C 3°C
14/01/19 06:00 EICK 140600Z 31009KT 9999 FEW018 BKN027 08/03 Q1025 NOSIG NW (310°) 10.4mph 8°C 3°C
14/01/19 05:30 EICK 140530Z 31009KT 280V340 9999 FEW017 BKN026 07/04 Q1025 NOSIG NW (310°) 10.4mph 7°C 4°C
14/01/19 05:00 EICK 140500Z 31007KT 280V350 9999 FEW017 BKN026 07/04 Q1025 NOSIG NW (310°) 8.1mph 7°C 4°C
14/01/19 04:30 EICK 140430Z 30008KT 280V340 9999 FEW017 BKN026 07/04 Q1025 NOSIG WNW (300°) 9.2mph 7°C 4°C
14/01/19 04:00 EICK 140400Z 31012KT 9999 FEW017 BKN026 07/04 Q1024 NOSIG NW (310°) 13.8mph 7°C 4°C
14/01/19 03:30 EICK 140330Z 30010KT 9999 FEW017 BKN027 08/04 Q1024 NOSIG WNW (300°) 11.5mph 8°C 4°C
14/01/19 03:00 EICK 140300Z 32013KT 9999 FEW017 BKN023 08/04 Q1024 NOSIG NW (320°) 15.0mph 8°C 4°C
14/01/19 02:30 EICK 140230Z 31014KT 9999 FEW018 BKN027 08/03 Q1024 NOSIG NW (310°) 16.1mph 8°C 3°C
14/01/19 02:00 EICK 140200Z 32016KT 9999 FEW018 BKN028 08/03 Q1024 NOSIG NW (320°) 18.4mph 8°C 3°C
14/01/19 01:30 EICK 140130Z 32013KT 9999 FEW018 BKN028 08/03 Q1024 NOSIG NW (320°) 15.0mph 8°C 3°C
14/01/19 01:00 EICK 140100Z 30015KT 9999 FEW018 BKN028 08/03 Q1024 NOSIG WNW (300°) 17.3mph 8°C 3°C
14/01/19 00:30 EICK 140030Z 30015KT 9999 FEW018 BKN028 08/03 Q1024 NOSIG WNW (300°) 17.3mph 8°C 3°C
14/01/19 00:00 EICK 140000Z 32015KT 9999 FEW018 BKN028 08/03 Q1024 NOSIG NW (320°) 17.3mph 8°C 3°C
13/01/19 23:30 EICK 132330Z 32012KT 9999 FEW018 BKN028 08/04 Q1024 NOSIG NW (320°) 13.8mph 8°C 4°C
13/01/19 23:00 EICK 132300Z 31012KT 9999 FEW018 BKN028 08/04 Q1023 NOSIG NW (310°) 13.8mph 8°C 4°C
13/01/19 22:30 EICK 132230Z 33018KT 9999 FEW018 BKN028 08/04 Q1023 NOSIG NNW (330°) 20.7mph 8°C 4°C
13/01/19 22:00 EICK 132200Z 32015KT 9999 FEW018 BKN028 08/03 Q1023 NOSIG NW (320°) 17.3mph 8°C 3°C
13/01/19 21:30 EICK 132130Z 30016KT 9999 FEW018 BKN026 08/04 Q1023 NOSIG WNW (300°) 18.4mph 8°C 4°C
13/01/19 21:00 EICK 132100Z 30015KT 9999 FEW018 BKN028 08/04 Q1022 NOSIG WNW (300°) 17.3mph 8°C 4°C
13/01/19 20:30 EICK 132030Z 30016KT 9999 FEW017 BKN028 08/05 Q1022 NOSIG WNW (300°) 18.4mph 8°C 5°C
13/01/19 20:00 EICK 132000Z 30015KT 9999 FEW017 BKN022 09/05 Q1022 NOSIG WNW (300°) 17.3mph 9°C 5°C
13/01/19 19:30 EICK 131930Z 31013KT 9999 FEW018 SCT024 09/06 Q1022 NOSIG NW (310°) 15.0mph 9°C 6°C
13/01/19 19:00 EICK 131900Z 31014KT 9999 FEW019 SCT022 BKN027 09/06 Q1021 NOSIG NW (310°) 16.1mph 9°C 6°C
13/01/19 18:30 EICK 131830Z 30024KT 9999 FEW012 SCT020 BKN026 10/06 Q1021 NOSIG WNW (300°) 27.6mph 10°C 6°C
13/01/19 18:00 EICK 131800Z 31017KT 9999 FEW008 SCT012 10/07 Q1021 NOSIG NW (310°) 19.6mph 10°C 7°C
13/01/19 17:30 EICK 131730Z 31013KT 9999 -DZ FEW008 SCT010 BKN012 10/08 Q1021 BECMG BKN008 -DZ NW (310°) 15.0mph 10°C 8°C
13/01/19 17:00 EICK 131700Z 30015KT 9999 FEW012 SCT016 10/08 Q1020 BECMG BKN008 WNW (300°) 17.3mph 10°C 8°C
13/01/19 16:30 EICK 131630Z 30016KT 9999 FEW011 SCT013 10/08 Q1020 BECMG BKN008 WNW (300°) 18.4mph 10°C 8°C
13/01/19 16:00 EICK 131600Z 28014KT 9999 FEW011 BKN013 11/08 Q1020 BECMG BKN008 W (280°) 16.1mph 11°C 8°C
13/01/19 15:30 EICK 131530Z 28017KT 9999 FEW011 SCT014 BKN018 11/09 Q1020 TEMPO BKN010 W (280°) 19.6mph 11°C 9°C
13/01/19 15:00 EICK 131500Z 29018KT 9999 FEW009 SCT011 BKN013 11/09 Q1020 TEMPO BKN010 WNW (290°) 20.7mph 11°C 9°C
13/01/19 14:30 EICK 131430Z 29019KT 9999 FEW009 SCT012 11/08 Q1021 NOSIG WNW (290°) 21.9mph 11°C 8°C
13/01/19 14:00 EICK 131400Z 29018KT 9999 FEW009 SCT250 10/08 Q1021 NOSIG WNW (290°) 20.7mph 10°C 8°C
13/01/19 13:30 EICK 131330Z 30019KT 9999 FEW010 SCT250 10/08 Q1021 NOSIG WNW (300°) 21.9mph 10°C 8°C
13/01/19 13:00 EICK 131300Z 30020KT 9999 FEW009 SCT011 11/08 Q1021 NOSIG WNW (300°) 23.0mph 11°C 8°C
13/01/19 12:30 EICK 131230Z 29017KT 9999 FEW011 SCT012 10/08 Q1021 NOSIG WNW (290°) 19.6mph 10°C 8°C
13/01/19 12:00 EICK 131200Z 28013KT 9999 FEW011 SCT013 10/07 Q1022 NOSIG W (280°) 15.0mph 10°C 7°C
13/01/19 11:30 EICK 131130Z 28014KT 9999 SCT012 10/07 Q1022 NOSIG W (280°) 16.1mph 10°C 7°C
13/01/19 11:00 EICK 131100Z 29016KT 9999 FEW014 SCT250 09/07 Q1022 NOSIG WNW (290°) 18.4mph 9°C 7°C
13/01/19 10:30 EICK 131030Z 28010KT 9999 FEW013 SCT250 09/06 Q1022 NOSIG W (280°) 11.5mph 9°C 6°C
13/01/19 10:00 EICK 131000Z 27007KT 9999 FEW013 SCT250 08/06 Q1022 NOSIG W (270°) 8.1mph 8°C 6°C
13/01/19 09:30 EICK 130930Z 28009KT 9999 FEW014 BKN250 08/06 Q1022 NOSIG W (280°) 10.4mph 8°C 6°C
13/01/19 09:00 EICK 130900Z 29010KT 9999 FEW014 BKN240 08/06 Q1022 NOSIG WNW (290°) 11.5mph 8°C 6°C
13/01/19 08:30 EICK 130830Z 30011KT 9999 FEW014 SCT240 09/06 Q1022 NOSIG WNW (300°) 12.7mph 9°C 6°C
13/01/19 08:00 EICK 130800Z 30019KT 9999 FEW014 SCT240 09/06 Q1022 NOSIG WNW (300°) 21.9mph 9°C 6°C
13/01/19 07:30 EICK 130730Z 25007KT 200V280 9999 FEW014 BKN240 08/06 Q1022 NOSIG WSW (250°) 8.1mph 8°C 6°C
13/01/19 07:00 EICK 130700Z 28008KT 9999 BKN016 08/06 Q1022 NOSIG W (280°) 9.2mph 8°C 6°C
13/01/19 06:30 EICK 130630Z 28011KT 9999 BKN016 08/06 Q1023 NOSIG W (280°) 12.7mph 8°C 6°C
13/01/19 06:00 EICK 130600Z 28011KT 9999 BKN016 08/06 Q1023 NOSIG W (280°) 12.7mph 8°C 6°C
13/01/19 05:30 EICK 130530Z 28015KT 9999 SCT016 BKN170 09/06 Q1023 TEMPO 3000 W (280°) 17.3mph 9°C 6°C
13/01/19 05:00 EICK 130500Z 29017KT 9999 SCT016 BKN170 09/06 Q1023 TEMPO 3000 WNW (290°) 19.6mph 9°C 6°C
13/01/19 04:30 EICK 130430Z 28014KT 9999 SCT015 BKN170 09/06 Q1023 TEMPO 3000 W (280°) 16.1mph 9°C 6°C
13/01/19 04:00 EICK 130400Z 29015KT 9999 SCT015 BKN170 08/06 Q1024 TEMPO 3000 WNW (290°) 17.3mph 8°C 6°C
13/01/19 03:30 EICK 130330Z 30011KT 9999 SCT016 BKN170 08/06 Q1024 TEMPO 3000 WNW (300°) 12.7mph 8°C 6°C